sensor_id;sensor_type;location;lat;lon;timestamp;P1;durP1;ratioP1;P2;durP2;ratioP2
56102;SDS011;41970;48.774;9.280;2023-05-14T00:01:35;12.07;;;8.47;;
56102;SDS011;41970;48.774;9.280;2023-05-14T00:04:01;9.33;;;7.20;;
56102;SDS011;41970;48.774;9.280;2023-05-14T00:06:27;7.83;;;7.20;;
56102;SDS011;41970;48.774;9.280;2023-05-14T00:08:53;7.70;;;7.00;;
56102;SDS011;41970;48.774;9.280;2023-05-14T00:11:19;8.37;;;7.60;;
56102;SDS011;41970;48.774;9.280;2023-05-14T00:13:45;10.03;;;8.03;;
56102;SDS011;41970;48.774;9.280;2023-05-14T00:16:11;8.90;;;8.10;;
56102;SDS011;41970;48.774;9.280;2023-05-14T00:18:37;8.37;;;7.67;;
56102;SDS011;41970;48.774;9.280;2023-05-14T00:21:02;8.90;;;7.43;;
56102;SDS011;41970;48.774;9.280;2023-05-14T00:23:28;8.30;;;7.60;;
56102;SDS011;41970;48.774;9.280;2023-05-14T00:25:54;8.93;;;8.03;;
56102;SDS011;41970;48.774;9.280;2023-05-14T00:28:20;10.13;;;9.17;;
56102;SDS011;41970;48.774;9.280;2023-05-14T00:30:46;9.53;;;8.57;;
56102;SDS011;41970;48.774;9.280;2023-05-14T00:33:12;8.70;;;7.90;;
56102;SDS011;41970;48.774;9.280;2023-05-14T00:35:37;9.77;;;8.77;;
56102;SDS011;41970;48.774;9.280;2023-05-14T00:38:03;10.73;;;8.37;;
56102;SDS011;41970;48.774;9.280;2023-05-14T00:40:29;9.23;;;8.43;;
56102;SDS011;41970;48.774;9.280;2023-05-14T00:42:55;9.70;;;8.70;;
56102;SDS011;41970;48.774;9.280;2023-05-14T00:45:21;10.37;;;9.47;;
56102;SDS011;41970;48.774;9.280;2023-05-14T00:47:47;11.60;;;10.50;;
56102;SDS011;41970;48.774;9.280;2023-05-14T00:50:14;11.90;;;10.57;;
56102;SDS011;41970;48.774;9.280;2023-05-14T00:52:41;13.80;;;10.37;;
56102;SDS011;41970;48.774;9.280;2023-05-14T00:55:08;10.83;;;9.83;;
56102;SDS011;41970;48.774;9.280;2023-05-14T00:57:36;10.20;;;8.90;;
56102;SDS011;41970;48.774;9.280;2023-05-14T01:00:03;10.80;;;9.70;;
56102;SDS011;41970;48.774;9.280;2023-05-14T01:02:30;11.07;;;9.90;;
56102;SDS011;41970;48.774;9.280;2023-05-14T01:04:56;10.63;;;9.63;;
56102;SDS011;41970;48.774;9.280;2023-05-14T01:10:25;12.53;;;11.23;;
56102;SDS011;41970;48.774;9.280;2023-05-14T01:13:12;11.43;;;10.27;;
56102;SDS011;41970;48.774;9.280;2023-05-14T01:15:55;12.10;;;10.80;;
56102;SDS011;41970;48.774;9.280;2023-05-14T01:18:21;11.97;;;9.77;;
56102;SDS011;41970;48.774;9.280;2023-05-14T01:20:49;11.60;;;10.50;;
56102;SDS011;41970;48.774;9.280;2023-05-14T01:23:18;11.63;;;10.53;;
56102;SDS011;41970;48.774;9.280;2023-05-14T01:25:46;12.20;;;11.10;;
56102;SDS011;41970;48.774;9.280;2023-05-14T01:30:44;11.80;;;10.60;;
56102;SDS011;41970;48.774;9.280;2023-05-14T01:33:20;10.20;;;9.30;;
56102;SDS011;41970;48.774;9.280;2023-05-14T01:35:48;10.23;;;9.23;;
56102;SDS011;41970;48.774;9.280;2023-05-14T01:38:17;11.20;;;9.50;;
56102;SDS011;41970;48.774;9.280;2023-05-14T01:40:44;10.90;;;9.03;;
56102;SDS011;41970;48.774;9.280;2023-05-14T01:43:10;11.73;;;9.20;;
56102;SDS011;41970;48.774;9.280;2023-05-14T01:45:36;9.87;;;8.60;;
56102;SDS011;41970;48.774;9.280;2023-05-14T01:48:03;9.80;;;8.80;;
56102;SDS011;41970;48.774;9.280;2023-05-14T01:50:29;9.80;;;8.83;;
56102;SDS011;41970;48.774;9.280;2023-05-14T01:52:55;8.23;;;7.43;;
56102;SDS011;41970;48.774;9.280;2023-05-14T01:55:21;8.63;;;7.83;;
56102;SDS011;41970;48.774;9.280;2023-05-14T01:57:50;8.10;;;7.40;;
56102;SDS011;41970;48.774;9.280;2023-05-14T02:00:17;9.57;;;8.47;;
56102;SDS011;41970;48.774;9.280;2023-05-14T02:02:43;8.53;;;7.73;;
56102;SDS011;41970;48.774;9.280;2023-05-14T02:05:09;9.63;;;8.73;;
56102;SDS011;41970;48.774;9.280;2023-05-14T02:07:36;8.93;;;7.93;;
56102;SDS011;41970;48.774;9.280;2023-05-14T02:10:02;9.47;;;8.57;;
56102;SDS011;41970;48.774;9.280;2023-05-14T02:12:28;9.53;;;8.60;;
56102;SDS011;41970;48.774;9.280;2023-05-14T02:14:53;9.47;;;8.40;;
56102;SDS011;41970;48.774;9.280;2023-05-14T02:17:19;8.70;;;7.90;;
56102;SDS011;41970;48.774;9.280;2023-05-14T02:19:45;8.77;;;7.97;;
56102;SDS011;41970;48.774;9.280;2023-05-14T02:22:11;8.67;;;7.97;;
56102;SDS011;41970;48.774;9.280;2023-05-14T02:24:36;8.13;;;7.37;;
56102;SDS011;41970;48.774;9.280;2023-05-14T02:27:03;8.50;;;7.37;;
56102;SDS011;41970;48.774;9.280;2023-05-14T02:29:29;9.20;;;8.40;;
56102;SDS011;41970;48.774;9.280;2023-05-14T02:31:55;9.90;;;8.90;;
56102;SDS011;41970;48.774;9.280;2023-05-14T02:34:20;9.20;;;8.33;;
56102;SDS011;41970;48.774;9.280;2023-05-14T02:36:46;7.77;;;6.67;;
56102;SDS011;41970;48.774;9.280;2023-05-14T02:39:12;7.77;;;7.07;;
56102;SDS011;41970;48.774;9.280;2023-05-14T02:41:37;9.20;;;8.33;;
56102;SDS011;41970;48.774;9.280;2023-05-14T02:44:03;7.93;;;7.23;;
56102;SDS011;41970;48.774;9.280;2023-05-14T02:46:29;9.10;;;8.30;;
56102;SDS011;41970;48.774;9.280;2023-05-14T02:48:56;9.50;;;8.60;;
56102;SDS011;41970;48.774;9.280;2023-05-14T02:51:22;10.30;;;8.33;;
56102;SDS011;41970;48.774;9.280;2023-05-14T02:53:48;8.63;;;7.43;;
56102;SDS011;41970;48.774;9.280;2023-05-14T02:56:17;9.67;;;8.77;;
56102;SDS011;41970;48.774;9.280;2023-05-14T02:58:42;8.63;;;7.83;;
56102;SDS011;41970;48.774;9.280;2023-05-14T03:01:08;8.30;;;7.50;;
56102;SDS011;41970;48.774;9.280;2023-05-14T03:03:34;7.87;;;7.17;;
56102;SDS011;41970;48.774;9.280;2023-05-14T03:06:00;8.70;;;7.90;;
56102;SDS011;41970;48.774;9.280;2023-05-14T03:08:26;8.77;;;7.87;;
56102;SDS011;41970;48.774;9.280;2023-05-14T03:10:51;10.63;;;7.67;;
56102;SDS011;41970;48.774;9.280;2023-05-14T03:13:17;8.83;;;8.00;;
56102;SDS011;41970;48.774;9.280;2023-05-14T03:15:44;8.33;;;7.63;;
56102;SDS011;41970;48.774;9.280;2023-05-14T03:18:11;8.77;;;7.80;;
56102;SDS011;41970;48.774;9.280;2023-05-14T03:20:37;8.80;;;7.97;;
56102;SDS011;41970;48.774;9.280;2023-05-14T03:23:03;9.43;;;8.43;;
56102;SDS011;41970;48.774;9.280;2023-05-14T03:25:29;8.77;;;7.87;;
56102;SDS011;41970;48.774;9.280;2023-05-14T03:27:55;7.93;;;7.23;;
56102;SDS011;41970;48.774;9.280;2023-05-14T03:30:20;9.20;;;8.40;;
56102;SDS011;41970;48.774;9.280;2023-05-14T03:32:46;9.03;;;8.13;;
56102;SDS011;41970;48.774;9.280;2023-05-14T03:35:12;10.77;;;8.33;;
56102;SDS011;41970;48.774;9.280;2023-05-14T03:37:38;9.27;;;8.37;;
56102;SDS011;41970;48.774;9.280;2023-05-14T03:40:04;9.33;;;8.53;;
56102;SDS011;41970;48.774;9.280;2023-05-14T03:42:30;8.40;;;7.60;;
56102;SDS011;41970;48.774;9.280;2023-05-14T03:44:56;9.70;;;8.80;;
56102;SDS011;41970;48.774;9.280;2023-05-14T03:47:22;10.33;;;9.20;;
56102;SDS011;41970;48.774;9.280;2023-05-14T03:49:48;9.73;;;8.80;;
56102;SDS011;41970;48.774;9.280;2023-05-14T03:52:14;9.43;;;8.50;;
56102;SDS011;41970;48.774;9.280;2023-05-14T03:54:39;9.23;;;8.33;;
56102;SDS011;41970;48.774;9.280;2023-05-14T03:57:05;9.83;;;8.83;;
56102;SDS011;41970;48.774;9.280;2023-05-14T03:59:31;9.47;;;8.60;;
56102;SDS011;41970;48.774;9.280;2023-05-14T04:01:57;8.90;;;8.10;;
56102;SDS011;41970;48.774;9.280;2023-05-14T04:04:23;9.33;;;8.43;;
56102;SDS011;41970;48.774;9.280;2023-05-14T04:06:48;9.30;;;8.50;;
56102;SDS011;41970;48.774;9.280;2023-05-14T04:09:14;9.90;;;9.00;;
56102;SDS011;41970;48.774;9.280;2023-05-14T04:11:40;9.53;;;8.63;;
56102;SDS011;41970;48.774;9.280;2023-05-14T04:14:06;11.83;;;9.40;;
56102;SDS011;41970;48.774;9.280;2023-05-14T04:16:31;10.20;;;9.30;;
56102;SDS011;41970;48.774;9.280;2023-05-14T04:18:59;10.83;;;9.50;;
56102;SDS011;41970;48.774;9.280;2023-05-14T04:21:26;10.57;;;9.57;;
56102;SDS011;41970;48.774;9.280;2023-05-14T04:23:51;10.30;;;9.37;;
56102;SDS011;41970;48.774;9.280;2023-05-14T04:26:18;9.60;;;8.73;;
56102;SDS011;41970;48.774;9.280;2023-05-14T04:28:43;10.57;;;9.70;;
56102;SDS011;41970;48.774;9.280;2023-05-14T04:31:09;10.00;;;8.43;;
56102;SDS011;41970;48.774;9.280;2023-05-14T04:33:36;10.67;;;9.63;;
56102;SDS011;41970;48.774;9.280;2023-05-14T04:36:03;10.50;;;9.57;;
56102;SDS011;41970;48.774;9.280;2023-05-14T04:38:29;10.40;;;9.40;;
56102;SDS011;41970;48.774;9.280;2023-05-14T04:40:56;9.93;;;9.03;;
56102;SDS011;41970;48.774;9.280;2023-05-14T04:43:22;10.60;;;9.60;;
56102;SDS011;41970;48.774;9.280;2023-05-14T04:45:48;10.10;;;9.13;;
56102;SDS011;41970;48.774;9.280;2023-05-14T04:48:14;11.40;;;8.20;;
56102;SDS011;41970;48.774;9.280;2023-05-14T04:50:40;8.50;;;7.80;;
56102;SDS011;41970;48.774;9.280;2023-05-14T04:53:05;9.53;;;8.63;;
56102;SDS011;41970;48.774;9.280;2023-05-14T04:55:31;12.43;;;8.30;;
56102;SDS011;41970;48.774;9.280;2023-05-14T04:57:57;9.10;;;8.30;;
56102;SDS011;41970;48.774;9.280;2023-05-14T05:00:23;7.83;;;7.20;;
56102;SDS011;41970;48.774;9.280;2023-05-14T05:02:48;9.03;;;8.30;;
56102;SDS011;41970;48.774;9.280;2023-05-14T05:05:14;6.63;;;5.93;;
56102;SDS011;41970;48.774;9.280;2023-05-14T05:07:40;7.50;;;6.80;;
56102;SDS011;41970;48.774;9.280;2023-05-14T05:10:06;7.80;;;7.20;;
56102;SDS011;41970;48.774;9.280;2023-05-14T05:12:32;8.10;;;7.30;;
56102;SDS011;41970;48.774;9.280;2023-05-14T05:15:02;8.97;;;8.03;;
56102;SDS011;41970;48.774;9.280;2023-05-14T05:17:28;9.10;;;8.20;;
56102;SDS011;41970;48.774;9.280;2023-05-14T05:19:55;8.10;;;7.40;;
56102;SDS011;41970;48.774;9.280;2023-05-14T05:22:21;8.67;;;7.97;;
56102;SDS011;41970;48.774;9.280;2023-05-14T05:24:47;9.50;;;8.70;;
56102;SDS011;41970;48.774;9.280;2023-05-14T05:27:13;9.90;;;8.20;;
56102;SDS011;41970;48.774;9.280;2023-05-14T05:29:38;7.20;;;6.50;;
56102;SDS011;41970;48.774;9.280;2023-05-14T05:32:05;8.03;;;7.33;;
56102;SDS011;41970;48.774;9.280;2023-05-14T05:34:31;8.27;;;7.43;;
56102;SDS011;41970;48.774;9.280;2023-05-14T05:36:57;8.90;;;8.00;;
56102;SDS011;41970;48.774;9.280;2023-05-14T05:39:23;9.13;;;8.33;;
56102;SDS011;41970;48.774;9.280;2023-05-14T05:41:49;8.80;;;8.00;;
56102;SDS011;41970;48.774;9.280;2023-05-14T05:44:14;8.80;;;8.00;;
56102;SDS011;41970;48.774;9.280;2023-05-14T05:46:40;8.27;;;7.50;;
56102;SDS011;41970;48.774;9.280;2023-05-14T05:49:06;9.47;;;8.57;;
56102;SDS011;41970;48.774;9.280;2023-05-14T05:51:33;8.97;;;8.27;;
56102;SDS011;41970;48.774;9.280;2023-05-14T05:53:59;9.33;;;8.53;;
56102;SDS011;41970;48.774;9.280;2023-05-14T05:56:24;9.03;;;8.13;;
56102;SDS011;41970;48.774;9.280;2023-05-14T05:58:50;6.97;;;6.37;;
56102;SDS011;41970;48.774;9.280;2023-05-14T06:01:16;9.47;;;8.33;;
56102;SDS011;41970;48.774;9.280;2023-05-14T06:03:42;9.10;;;8.20;;
56102;SDS011;41970;48.774;9.280;2023-05-14T06:06:07;9.50;;;8.60;;
56102;SDS011;41970;48.774;9.280;2023-05-14T06:08:33;9.50;;;8.50;;
56102;SDS011;41970;48.774;9.280;2023-05-14T06:10:59;11.07;;;9.30;;
56102;SDS011;41970;48.774;9.280;2023-05-14T06:13:25;9.77;;;8.87;;
56102;SDS011;41970;48.774;9.280;2023-05-14T06:15:50;9.30;;;8.40;;
56102;SDS011;41970;48.774;9.280;2023-05-14T06:18:16;9.80;;;8.47;;
56102;SDS011;41970;48.774;9.280;2023-05-14T06:20:42;9.80;;;8.90;;
56102;SDS011;41970;48.774;9.280;2023-05-14T06:23:08;8.60;;;7.80;;
56102;SDS011;41970;48.774;9.280;2023-05-14T06:25:36;9.83;;;8.80;;
56102;SDS011;41970;48.774;9.280;2023-05-14T06:28:01;9.97;;;8.87;;
56102;SDS011;41970;48.774;9.280;2023-05-14T06:30:27;9.60;;;8.77;;
56102;SDS011;41970;48.774;9.280;2023-05-14T06:32:53;10.30;;;8.83;;
56102;SDS011;41970;48.774;9.280;2023-05-14T06:35:19;7.97;;;7.17;;
56102;SDS011;41970;48.774;9.280;2023-05-14T06:37:44;9.10;;;8.00;;
56102;SDS011;41970;48.774;9.280;2023-05-14T06:40:11;12.10;;;8.83;;
56102;SDS011;41970;48.774;9.280;2023-05-14T06:42:39;9.70;;;8.60;;
56102;SDS011;41970;48.774;9.280;2023-05-14T06:45:05;10.40;;;8.03;;
56102;SDS011;41970;48.774;9.280;2023-05-14T06:47:31;9.50;;;8.50;;
56102;SDS011;41970;48.774;9.280;2023-05-14T06:49:58;8.87;;;8.03;;
56102;SDS011;41970;48.774;9.280;2023-05-14T06:52:25;10.17;;;9.17;;
56102;SDS011;41970;48.774;9.280;2023-05-14T06:54:51;10.37;;;8.90;;
56102;SDS011;41970;48.774;9.280;2023-05-14T06:57:17;10.40;;;9.47;;
56102;SDS011;41970;48.774;9.280;2023-05-14T06:59:42;10.03;;;8.93;;
56102;SDS011;41970;48.774;9.280;2023-05-14T07:02:08;12.30;;;9.90;;
56102;SDS011;41970;48.774;9.280;2023-05-14T07:04:34;10.97;;;9.87;;
56102;SDS011;41970;48.774;9.280;2023-05-14T07:07:00;9.90;;;9.00;;
56102;SDS011;41970;48.774;9.280;2023-05-14T07:09:26;10.20;;;9.20;;
56102;SDS011;41970;48.774;9.280;2023-05-14T07:11:52;10.23;;;9.23;;
56102;SDS011;41970;48.774;9.280;2023-05-14T07:14:18;10.57;;;9.47;;
56102;SDS011;41970;48.774;9.280;2023-05-14T07:16:44;10.20;;;9.00;;
56102;SDS011;41970;48.774;9.280;2023-05-14T07:19:11;9.80;;;8.83;;
56102;SDS011;41970;48.774;9.280;2023-05-14T07:21:37;11.03;;;8.53;;
56102;SDS011;41970;48.774;9.280;2023-05-14T07:24:03;9.07;;;8.17;;
56102;SDS011;41970;48.774;9.280;2023-05-14T07:26:32;8.70;;;7.80;;
56102;SDS011;41970;48.774;9.280;2023-05-14T07:28:58;10.17;;;7.83;;
56102;SDS011;41970;48.774;9.280;2023-05-14T07:31:23;9.10;;;8.17;;
56102;SDS011;41970;48.774;9.280;2023-05-14T07:33:49;10.60;;;9.57;;
56102;SDS011;41970;48.774;9.280;2023-05-14T07:36:15;10.23;;;9.27;;
56102;SDS011;41970;48.774;9.280;2023-05-14T07:38:41;10.80;;;9.70;;
56102;SDS011;41970;48.774;9.280;2023-05-14T07:41:07;11.27;;;10.07;;
56102;SDS011;41970;48.774;9.280;2023-05-14T07:43:32;10.93;;;9.93;;
56102;SDS011;41970;48.774;9.280;2023-05-14T07:45:58;10.60;;;9.60;;
56102;SDS011;41970;48.774;9.280;2023-05-14T07:48:24;12.47;;;10.37;;
56102;SDS011;41970;48.774;9.280;2023-05-14T07:50:50;11.67;;;10.47;;
56102;SDS011;41970;48.774;9.280;2023-05-14T07:53:19;9.67;;;8.77;;
56102;SDS011;41970;48.774;9.280;2023-05-14T07:55:46;8.30;;;7.50;;
56102;SDS011;41970;48.774;9.280;2023-05-14T07:58:13;9.80;;;8.80;;
56102;SDS011;41970;48.774;9.280;2023-05-14T08:00:38;10.10;;;9.10;;
56102;SDS011;41970;48.774;9.280;2023-05-14T08:03:04;9.53;;;8.27;;
56102;SDS011;41970;48.774;9.280;2023-05-14T08:05:30;13.37;;;9.90;;
56102;SDS011;41970;48.774;9.280;2023-05-14T08:07:57;9.50;;;8.50;;
56102;SDS011;41970;48.774;9.280;2023-05-14T08:10:22;10.67;;;9.53;;
56102;SDS011;41970;48.774;9.280;2023-05-14T08:12:48;10.03;;;9.00;;
56102;SDS011;41970;48.774;9.280;2023-05-14T08:15:14;11.10;;;9.90;;
56102;SDS011;41970;48.774;9.280;2023-05-14T08:17:40;9.53;;;8.60;;
56102;SDS011;41970;48.774;9.280;2023-05-14T08:20:06;10.07;;;8.90;;
56102;SDS011;41970;48.774;9.280;2023-05-14T08:22:32;10.47;;;9.47;;
56102;SDS011;41970;48.774;9.280;2023-05-14T08:24:58;10.03;;;8.80;;
56102;SDS011;41970;48.774;9.280;2023-05-14T08:27:24;10.37;;;9.27;;
56102;SDS011;41970;48.774;9.280;2023-05-14T08:29:51;9.87;;;8.97;;
56102;SDS011;41970;48.774;9.280;2023-05-14T08:32:17;9.63;;;8.73;;
56102;SDS011;41970;48.774;9.280;2023-05-14T08:34:42;11.50;;;10.50;;
56102;SDS011;41970;48.774;9.280;2023-05-14T08:37:08;9.63;;;8.73;;
56102;SDS011;41970;48.774;9.280;2023-05-14T08:39:34;11.90;;;10.80;;
56102;SDS011;41970;48.774;9.280;2023-05-14T08:42:00;10.60;;;9.30;;
56102;SDS011;41970;48.774;9.280;2023-05-14T08:44:43;9.50;;;8.57;;
56102;SDS011;41970;48.774;9.280;2023-05-14T08:47:14;9.90;;;8.87;;
56102;SDS011;41970;48.774;9.280;2023-05-14T08:49:42;9.80;;;8.80;;
56102;SDS011;41970;48.774;9.280;2023-05-14T08:52:11;11.60;;;9.67;;
56102;SDS011;41970;48.774;9.280;2023-05-14T08:54:37;11.43;;;10.33;;
56102;SDS011;41970;48.774;9.280;2023-05-14T08:57:04;10.70;;;9.60;;
56102;SDS011;41970;48.774;9.280;2023-05-14T08:59:30;10.90;;;9.80;;
56102;SDS011;41970;48.774;9.280;2023-05-14T09:01:57;10.37;;;9.47;;
56102;SDS011;41970;48.774;9.280;2023-05-14T09:04:26;10.37;;;8.70;;
56102;SDS011;41970;48.774;9.280;2023-05-14T09:06:53;11.10;;;10.00;;
56102;SDS011;41970;48.774;9.280;2023-05-14T09:09:20;9.43;;;8.50;;
56102;SDS011;41970;48.774;9.280;2023-05-14T09:11:50;9.33;;;8.07;;
56102;SDS011;41970;48.774;9.280;2023-05-14T09:14:17;11.47;;;10.10;;
56102;SDS011;41970;48.774;9.280;2023-05-14T09:16:44;9.90;;;8.90;;
56102;SDS011;41970;48.774;9.280;2023-05-14T09:19:12;10.00;;;9.00;;
56102;SDS011;41970;48.774;9.280;2023-05-14T09:21:39;10.00;;;9.10;;
56102;SDS011;41970;48.774;9.280;2023-05-14T09:24:05;9.97;;;9.03;;
56102;SDS011;41970;48.774;9.280;2023-05-14T09:26:32;10.73;;;9.63;;
56102;SDS011;41970;48.774;9.280;2023-05-14T09:28:59;10.77;;;8.00;;
56102;SDS011;41970;48.774;9.280;2023-05-14T09:31:29;8.23;;;7.20;;
56102;SDS011;41970;48.774;9.280;2023-05-14T09:33:56;8.77;;;7.97;;
56102;SDS011;41970;48.774;9.280;2023-05-14T09:36:23;8.77;;;7.50;;
56102;SDS011;41970;48.774;9.280;2023-05-14T09:38:51;9.57;;;7.53;;
56102;SDS011;41970;48.774;9.280;2023-05-14T09:41:23;9.43;;;8.53;;
56102;SDS011;41970;48.774;9.280;2023-05-14T09:43:49;10.27;;;9.27;;
56102;SDS011;41970;48.774;9.280;2023-05-14T09:46:15;9.77;;;8.50;;
56102;SDS011;41970;48.774;9.280;2023-05-14T09:48:41;14.23;;;9.60;;
56102;SDS011;41970;48.774;9.280;2023-05-14T09:51:10;12.00;;;9.80;;
56102;SDS011;41970;48.774;9.280;2023-05-14T09:53:37;13.17;;;8.30;;
56102;SDS011;41970;48.774;9.280;2023-05-14T09:56:03;10.50;;;9.40;;
56102;SDS011;41970;48.774;9.280;2023-05-14T09:58:29;8.90;;;7.73;;
56102;SDS011;41970;48.774;9.280;2023-05-14T10:00:56;9.80;;;8.90;;
56102;SDS011;41970;48.774;9.280;2023-05-14T10:03:24;12.20;;;7.63;;
56102;SDS011;41970;48.774;9.280;2023-05-14T10:05:52;8.27;;;7.47;;
56102;SDS011;41970;48.774;9.280;2023-05-14T10:08:33;25.53;;;11.43;;
56102;SDS011;41970;48.774;9.280;2023-05-14T10:11:01;14.60;;;9.23;;
56102;SDS011;41970;48.774;9.280;2023-05-14T10:13:32;7.70;;;6.93;;
56102;SDS011;41970;48.774;9.280;2023-05-14T10:18:36;88.53;;;23.37;;
56102;SDS011;41970;48.774;9.280;2023-05-14T10:21:07;8.77;;;7.73;;
56102;SDS011;41970;48.774;9.280;2023-05-14T10:23:35;10.13;;;8.00;;
56102;SDS011;41970;48.774;9.280;2023-05-14T10:26:02;9.43;;;7.73;;
56102;SDS011;41970;48.774;9.280;2023-05-14T10:28:29;8.90;;;8.10;;
56102;SDS011;41970;48.774;9.280;2023-05-14T10:30:56;9.23;;;8.33;;
56102;SDS011;41970;48.774;9.280;2023-05-14T10:33:24;7.93;;;7.20;;
56102;SDS011;41970;48.774;9.280;2023-05-14T10:35:50;8.47;;;7.67;;
56102;SDS011;41970;48.774;9.280;2023-05-14T10:38:31;8.07;;;7.03;;
56102;SDS011;41970;48.774;9.280;2023-05-14T10:40:59;57.30;;;15.97;;
56102;SDS011;41970;48.774;9.280;2023-05-14T10:43:29;8.07;;;6.40;;
56102;SDS011;41970;48.774;9.280;2023-05-14T10:45:58;6.90;;;5.40;;
56102;SDS011;41970;48.774;9.280;2023-05-14T10:48:25;9.23;;;8.40;;
56102;SDS011;41970;48.774;9.280;2023-05-14T10:50:51;12.40;;;7.47;;
56102;SDS011;41970;48.774;9.280;2023-05-14T10:53:17;7.70;;;6.20;;
56102;SDS011;41970;48.774;9.280;2023-05-14T10:55:43;20.00;;;10.00;;
56102;SDS011;41970;48.774;9.280;2023-05-14T10:58:10;10.63;;;7.70;;
56102;SDS011;41970;48.774;9.280;2023-05-14T11:00:36;16.50;;;9.80;;
56102;SDS011;41970;48.774;9.280;2023-05-14T11:03:03;8.87;;;6.43;;
56102;SDS011;41970;48.774;9.280;2023-05-14T11:05:30;6.37;;;5.77;;
56102;SDS011;41970;48.774;9.280;2023-05-14T11:07:58;7.97;;;7.27;;
56102;SDS011;41970;48.774;9.280;2023-05-14T11:10:25;6.80;;;6.20;;
56102;SDS011;41970;48.774;9.280;2023-05-14T11:12:54;7.67;;;6.93;;
56102;SDS011;41970;48.774;9.280;2023-05-14T11:15:22;17.27;;;10.00;;
56102;SDS011;41970;48.774;9.280;2023-05-14T11:17:50;16.13;;;8.07;;
56102;SDS011;41970;48.774;9.280;2023-05-14T11:20:16;29.53;;;13.63;;
56102;SDS011;41970;48.774;9.280;2023-05-14T11:22:43;6.10;;;5.50;;
56102;SDS011;41970;48.774;9.280;2023-05-14T11:25:10;6.57;;;5.97;;
56102;SDS011;41970;48.774;9.280;2023-05-14T11:27:40;6.03;;;5.53;;
56102;SDS011;41970;48.774;9.280;2023-05-14T11:30:14;7.33;;;6.13;;
56102;SDS011;41970;48.774;9.280;2023-05-14T11:32:45;7.37;;;6.50;;
56102;SDS011;41970;48.774;9.280;2023-05-14T11:35:13;8.80;;;6.70;;
56102;SDS011;41970;48.774;9.280;2023-05-14T11:37:39;7.70;;;7.00;;
56102;SDS011;41970;48.774;9.280;2023-05-14T11:40:06;6.97;;;6.37;;
56102;SDS011;41970;48.774;9.280;2023-05-14T11:42:35;7.13;;;6.53;;
56102;SDS011;41970;48.774;9.280;2023-05-14T11:45:01;7.17;;;6.57;;
56102;SDS011;41970;48.774;9.280;2023-05-14T11:47:28;7.20;;;6.50;;
56102;SDS011;41970;48.774;9.280;2023-05-14T11:49:54;7.30;;;6.60;;
56102;SDS011;41970;48.774;9.280;2023-05-14T11:52:20;7.17;;;6.47;;
56102;SDS011;41970;48.774;9.280;2023-05-14T11:54:46;6.97;;;6.37;;
56102;SDS011;41970;48.774;9.280;2023-05-14T11:57:20;6.20;;;5.60;;
56102;SDS011;41970;48.774;9.280;2023-05-14T11:59:48;6.07;;;5.57;;
56102;SDS011;41970;48.774;9.280;2023-05-14T12:02:23;7.03;;;6.40;;
56102;SDS011;41970;48.774;9.280;2023-05-14T12:04:53;7.30;;;5.60;;
56102;SDS011;41970;48.774;9.280;2023-05-14T12:07:18;7.07;;;6.37;;
56102;SDS011;41970;48.774;9.280;2023-05-14T12:09:46;8.73;;;5.43;;
56102;SDS011;41970;48.774;9.280;2023-05-14T12:12:19;6.33;;;5.80;;
56102;SDS011;41970;48.774;9.280;2023-05-14T12:14:46;4.97;;;4.57;;
56102;SDS011;41970;48.774;9.280;2023-05-14T12:17:13;5.40;;;4.90;;
56102;SDS011;41970;48.774;9.280;2023-05-14T12:19:44;4.97;;;4.47;;
56102;SDS011;41970;48.774;9.280;2023-05-14T12:22:15;6.73;;;4.70;;
56102;SDS011;41970;48.774;9.280;2023-05-14T12:24:43;4.67;;;4.27;;
56102;SDS011;41970;48.774;9.280;2023-05-14T12:27:27;5.67;;;5.13;;
56102;SDS011;41970;48.774;9.280;2023-05-14T12:30:00;4.40;;;4.00;;
56102;SDS011;41970;48.774;9.280;2023-05-14T12:32:30;4.63;;;4.13;;
56102;SDS011;41970;48.774;9.280;2023-05-14T12:35:00;4.07;;;3.77;;
56102;SDS011;41970;48.774;9.280;2023-05-14T12:37:26;4.70;;;4.20;;
56102;SDS011;41970;48.774;9.280;2023-05-14T12:39:52;4.63;;;4.33;;
56102;SDS011;41970;48.774;9.280;2023-05-14T12:42:18;5.10;;;4.60;;
56102;SDS011;41970;48.774;9.280;2023-05-14T12:44:43;4.43;;;4.07;;
56102;SDS011;41970;48.774;9.280;2023-05-14T12:47:09;4.23;;;3.83;;
56102;SDS011;41970;48.774;9.280;2023-05-14T12:49:35;11.53;;;5.37;;
56102;SDS011;41970;48.774;9.280;2023-05-14T12:52:01;4.63;;;4.10;;
56102;SDS011;41970;48.774;9.280;2023-05-14T12:54:27;5.33;;;4.93;;
56102;SDS011;41970;48.774;9.280;2023-05-14T12:56:53;4.27;;;3.87;;
56102;SDS011;41970;48.774;9.280;2023-05-14T12:59:19;7.43;;;5.80;;
56102;SDS011;41970;48.774;9.280;2023-05-14T13:01:45;5.17;;;4.67;;
56102;SDS011;41970;48.774;9.280;2023-05-14T13:04:10;4.30;;;3.90;;
56102;SDS011;41970;48.774;9.280;2023-05-14T13:06:37;4.30;;;3.90;;
56102;SDS011;41970;48.774;9.280;2023-05-14T13:09:03;4.90;;;4.40;;
56102;SDS011;41970;48.774;9.280;2023-05-14T13:11:29;5.33;;;4.93;;
56102;SDS011;41970;48.774;9.280;2023-05-14T13:13:57;4.50;;;4.10;;
56102;SDS011;41970;48.774;9.280;2023-05-14T13:16:24;5.07;;;4.30;;
56102;SDS011;41970;48.774;9.280;2023-05-14T13:18:51;6.60;;;4.10;;
56102;SDS011;41970;48.774;9.280;2023-05-14T13:21:17;5.20;;;4.67;;
56102;SDS011;41970;48.774;9.280;2023-05-14T13:23:42;4.97;;;4.57;;
56102;SDS011;41970;48.774;9.280;2023-05-14T13:26:08;6.00;;;4.50;;
56102;SDS011;41970;48.774;9.280;2023-05-14T13:28:34;5.03;;;4.53;;
56102;SDS011;41970;48.774;9.280;2023-05-14T13:31:04;4.07;;;3.60;;
56102;SDS011;41970;48.774;9.280;2023-05-14T13:33:35;4.60;;;4.20;;
56102;SDS011;41970;48.774;9.280;2023-05-14T13:36:02;4.53;;;3.93;;
56102;SDS011;41970;48.774;9.280;2023-05-14T13:38:28;4.40;;;4.00;;
56102;SDS011;41970;48.774;9.280;2023-05-14T13:40:54;5.03;;;4.20;;
56102;SDS011;41970;48.774;9.280;2023-05-14T13:43:26;5.17;;;4.77;;
56102;SDS011;41970;48.774;9.280;2023-05-14T13:45:53;4.60;;;4.20;;
56102;SDS011;41970;48.774;9.280;2023-05-14T13:48:19;5.83;;;4.00;;
56102;SDS011;41970;48.774;9.280;2023-05-14T13:50:44;7.40;;;6.07;;
56102;SDS011;41970;48.774;9.280;2023-05-14T13:53:10;4.53;;;4.13;;
56102;SDS011;41970;48.774;9.280;2023-05-14T13:55:36;12.87;;;6.60;;
56102;SDS011;41970;48.774;9.280;2023-05-14T13:58:02;3.53;;;3.23;;
56102;SDS011;41970;48.774;9.280;2023-05-14T14:00:28;6.50;;;4.00;;
56102;SDS011;41970;48.774;9.280;2023-05-14T14:02:54;3.73;;;3.43;;
56102;SDS011;41970;48.774;9.280;2023-05-14T14:05:20;5.30;;;3.47;;
56102;SDS011;41970;48.774;9.280;2023-05-14T14:07:47;7.07;;;4.40;;
56102;SDS011;41970;48.774;9.280;2023-05-14T14:10:13;4.50;;;4.10;;
56102;SDS011;41970;48.774;9.280;2023-05-14T14:12:39;4.37;;;3.97;;
56102;SDS011;41970;48.774;9.280;2023-05-14T14:15:05;4.30;;;3.90;;
56102;SDS011;41970;48.774;9.280;2023-05-14T14:17:31;4.27;;;3.97;;
56102;SDS011;41970;48.774;9.280;2023-05-14T14:20:01;4.90;;;4.50;;
56102;SDS011;41970;48.774;9.280;2023-05-14T14:22:30;5.17;;;4.77;;
56102;SDS011;41970;48.774;9.280;2023-05-14T14:24:56;4.87;;;4.53;;
56102;SDS011;41970;48.774;9.280;2023-05-14T14:27:21;4.23;;;3.93;;
56102;SDS011;41970;48.774;9.280;2023-05-14T14:29:47;3.50;;;3.30;;
56102;SDS011;41970;48.774;9.280;2023-05-14T14:32:13;4.13;;;3.83;;
56102;SDS011;41970;48.774;9.280;2023-05-14T14:34:38;4.00;;;3.70;;
56102;SDS011;41970;48.774;9.280;2023-05-14T14:37:04;4.67;;;3.83;;
56102;SDS011;41970;48.774;9.280;2023-05-14T14:39:30;4.07;;;3.70;;
56102;SDS011;41970;48.774;9.280;2023-05-14T14:41:55;4.10;;;3.80;;
56102;SDS011;41970;48.774;9.280;2023-05-14T14:44:21;4.47;;;4.07;;
56102;SDS011;41970;48.774;9.280;2023-05-14T14:46:47;3.80;;;3.50;;
56102;SDS011;41970;48.774;9.280;2023-05-14T14:49:12;3.80;;;3.50;;